Time;durP1;ratioP1;P1;durP2;ratioP2;P2;SDS_P1;SDS_P2;PMS_P1;PMS_P2;Temp;Humidity;BMP_temperature;BMP_pressure;BME280_temperature;BME280_humidity;BME280_pressure;Samples;Min_cycle;Max_cycle;Signal;HPM_P1;HPM_P2
2023/05/29 00:02:02;;;;;;;15.10;4.93;;;;;;;12.56;78.20;101402.44;4993471;28;20046;-74
2023/05/29 00:04:29;;;;;;;15.50;5.00;;;;;;;12.61;78.25;101403.66;4993113;28;20137;-75
2023/05/29 00:06:55;;;;;;;27.77;5.90;;;;;;;12.67;77.41;101406.72;4992705;28;20057;-74
2023/05/29 00:09:22;;;;;;;17.08;5.07;;;;;;;12.58;78.23;101405.81;4993603;28;20054;-75
2023/05/29 00:11:51;;;;;;;13.88;5.20;;;;;;;12.59;78.16;101402.97;4991305;28;20376;-75
2023/05/29 00:14:23;;;;;;;12.93;4.53;;;;;;;12.58;77.44;101412.03;4992082;28;20046;-74
2023/05/29 00:16:51;;;;;;;14.90;4.70;;;;;;;12.54;76.98;101404.44;4993200;28;20100;-74
2023/05/29 00:19:19;;;;;;;19.08;4.75;;;;;;;12.54;77.39;101404.44;4990705;28;20494;-74
2023/05/29 00:21:47;;;;;;;14.07;4.68;;;;;;;12.53;77.19;101419.75;4997474;28;20049;-74
2023/05/29 00:24:17;;;;;;;15.80;4.13;;;;;;;12.54;77.18;101412.50;4981418;28;20114;-75
2023/05/29 00:26:44;;;;;;;15.77;4.50;;;;;;;12.78;75.67;101410.03;4969906;28;20054;-76
2023/05/29 00:29:11;;;;;;;16.35;5.03;;;;;;;12.83;75.34;101409.53;4974559;28;20047;-75
2023/05/29 00:31:37;;;;;;;17.20;4.50;;;;;;;12.73;75.11;101416.84;4982968;28;20082;-76
2023/05/29 00:34:04;;;;;;;11.20;4.30;;;;;;;12.80;75.07;101415.25;4972708;28;20043;-76
2023/05/29 00:36:31;;;;;;;19.13;4.28;;;;;;;12.88;74.27;101410.78;4972842;28;20106;-75
2023/05/29 00:38:57;;;;;;;15.60;4.80;;;;;;;12.73;73.74;101415.03;4973097;28;20487;-75
2023/05/29 00:41:24;;;;;;;12.40;4.47;;;;;;;12.54;74.25;101410.66;4973606;28;20082;-75
2023/05/29 00:43:51;;;;;;;12.52;4.10;;;;;;;12.48;74.78;101408.59;4973136;28;20058;-75
2023/05/29 00:46:20;;;;;;;14.05;4.32;;;;;;;12.54;74.23;101410.66;4972665;28;20054;-76
2023/05/29 00:48:47;;;;;;;15.43;4.55;;;;;;;12.60;74.33;101409.19;4973121;28;20047;-75
2023/05/29 00:51:15;;;;;;;14.77;4.18;;;;;;;12.60;73.52;101406.50;4972990;28;20093;-75
2023/05/29 00:53:43;;;;;;;12.85;4.18;;;;;;;12.43;74.37;101402.84;4972880;28;20058;-75
2023/05/29 00:56:10;;;;;;;10.35;4.15;;;;;;;12.57;73.42;101406.81;4972962;28;20065;-75
2023/05/29 00:58:37;;;;;;;10.43;4.15;;;;;;;12.47;73.92;101403.38;4972416;28;20086;-75
2023/05/29 01:01:05;;;;;;;18.13;4.50;;;;;;;12.44;73.19;101407.22;4972273;28;20050;-75
2023/05/29 01:03:35;;;;;;;13.57;4.25;;;;;;;12.59;72.89;101410.19;4972649;28;20043;-75
2023/05/29 01:09:49;;;;;;;12.75;4.50;;;;;;;12.62;71.10;101409.88;4971800;28;20456;-75
2023/05/29 01:12:38;;;;;;;12.43;3.88;;;;;;;12.73;70.38;101412.34;4971221;28;20114;-75
2023/05/29 01:15:16;;;;;;;13.55;4.32;;;;;;;12.65;70.82;101412.25;4971554;28;20549;-75
2023/05/29 01:17:55;;;;;;;12.18;4.32;;;;;;;12.69;71.32;101410.09;4969753;28;20458;-76
2023/05/29 01:20:41;;;;;;;11.00;4.05;;;;;;;12.74;71.02;101413.16;4971984;28;20077;-75
2023/05/29 01:23:27;;;;;;;15.10;4.32;;;;;;;12.58;71.45;101412.03;4971649;28;20042;-75
2023/05/29 01:26:09;;;;;;;17.27;5.07;;;;;;;12.52;71.40;101418.06;4972036;28;20137;-75
2023/05/29 01:28:38;;;;;;;;;;;;;;;12.49;71.33;101417.53;4965513;28;20117;-75
2023/05/29 01:31:07;;;;;;;11.25;3.90;;;;;;;12.47;71.49;101414.13;4998795;28;20028;-75
2023/05/29 01:33:40;;;;;;;7.72;3.63;;;;;;;12.65;70.91;101417.63;5010701;28;20050;-76
2023/05/29 01:36:08;;;;;;;14.27;4.27;;;;;;;12.41;71.50;101427.19;5008780;28;20137;-75
2023/05/29 01:38:35;;;;;;;16.50;3.83;;;;;;;12.52;71.47;101422.56;5011028;28;20112;-75
2023/05/29 01:41:03;;;;;;;11.98;3.72;;;;;;;12.65;70.75;101426.56;5011172;28;20045;-75
2023/05/29 01:43:30;;;;;;;17.10;4.72;;;;;;;12.58;71.16;101427.34;5011027;28;20050;-74
2023/05/29 01:45:57;;;;;;;14.35;4.40;;;;;;;12.68;71.17;101432.63;5010762;28;20050;-75
2023/05/29 01:48:27;;;;;;;13.38;4.60;;;;;;;12.70;71.18;101428.78;4984788;28;20162;-74
2023/05/29 01:50:55;;;;;;;15.10;4.53;;;;;;;12.60;72.32;101422.66;5011121;28;20050;-74
2023/05/29 01:53:22;;;;;;;13.15;4.22;;;;;;;12.71;71.94;101422.41;4990399;28;20101;-75
2023/05/29 01:55:50;;;;;;;13.85;4.15;;;;;;;12.65;72.21;101428.41;4991441;28;20391;-74
2023/05/29 01:58:20;;;;;;;11.30;3.85;;;;;;;12.62;72.45;101434.09;4991161;28;20410;-74
2023/05/29 02:00:46;;;;;;;13.40;4.20;;;;;;;12.52;73.20;101431.53;4991423;28;20061;-74
2023/05/29 02:03:13;;;;;;;10.77;4.35;;;;;;;12.60;73.31;101426.19;4991322;28;20054;-74
2023/05/29 02:05:40;;;;;;;16.02;4.55;;;;;;;12.65;73.00;101431.09;4991496;28;20046;-76
2023/05/29 02:08:07;;;;;;;11.13;4.00;;;;;;;12.63;73.11;101428.56;4991356;28;20218;-75
2023/05/29 02:10:33;;;;;;;11.77;3.40;;;;;;;12.67;73.32;101433.66;4991370;28;20054;-75
2023/05/29 02:13:00;;;;;;;10.70;4.22;;;;;;;12.65;73.45;101437.31;4991433;28;20074;-75
2023/05/29 02:15:27;;;;;;;14.20;4.63;;;;;;;12.65;73.58;101434.63;4991370;28;20572;-74
2023/05/29 02:17:53;;;;;;;12.75;4.63;;;;;;;12.52;74.15;101433.34;4991840;28;20454;-75
2023/05/29 02:20:20;;;;;;;13.73;4.60;;;;;;;12.39;74.99;101437.28;4989755;28;20074;-75
2023/05/29 02:22:47;;;;;;;11.13;4.25;;;;;;;12.48;75.53;101431.97;4990954;28;20116;-75
2023/05/29 02:25:13;;;;;;;16.55;4.82;;;;;;;12.48;75.47;101434.66;4989561;28;20054;-75
2023/05/29 02:27:41;;;;;;;16.10;4.47;;;;;;;12.45;75.75;101435.81;4990769;28;20089;-75
2023/05/29 02:30:08;;;;;;;20.38;4.45;;;;;;;12.48;75.87;101445.44;4985126;28;20466;-74
2023/05/29 02:32:35;;;;;;;18.90;4.43;;;;;;;12.45;76.15;101438.50;4971515;28;20047;-75
2023/05/29 02:35:02;;;;;;;8.48;4.00;;;;;;;12.48;75.97;101434.66;4972165;28;20050;-74
2023/05/29 02:37:29;;;;;;;16.23;4.47;;;;;;;12.50;75.85;101436.19;4972308;28;20549;-76
2023/05/29 02:39:55;;;;;;;14.48;5.25;;;;;;;12.49;76.29;101437.22;4972765;28;20046;-74
2023/05/29 02:42:22;;;;;;;19.70;4.95;;;;;;;12.46;76.75;101434.00;4972900;28;20047;-75
2023/05/29 02:44:48;;;;;;;16.05;4.53;;;;;;;12.44;77.09;101430.59;4975922;28;20093;-74
2023/05/29 02:47:15;;;;;;;14.48;4.65;;;;;;;12.40;77.46;101430.91;4975792;28;20043;-76
2023/05/29 02:49:42;;;;;;;13.90;4.70;;;;;;;12.45;77.70;101434.97;4975756;28;20102;-75
2023/05/29 02:52:08;;;;;;;11.23;4.03;;;;;;;12.34;78.74;101436.88;4975658;28;20050;-75
2023/05/29 02:54:35;;;;;;;18.38;4.80;;;;;;;12.39;78.65;101439.97;4975964;28;20106;-74
2023/05/29 02:57:02;;;;;;;13.43;4.68;;;;;;;12.34;79.39;101442.28;4976177;28;20051;-74
2023/05/29 02:59:29;;;;;;;18.70;4.80;;;;;;;12.27;80.57;101451.97;4975782;28;20161;-75
2023/05/29 03:01:55;;;;;;;12.77;4.65;;;;;;;12.39;80.22;101442.66;4976375;28;20050;-75
2023/05/29 03:04:22;;;;;;;12.98;4.88;;;;;;;12.35;81.00;101443.97;4975343;28;20057;-74
2023/05/29 03:06:48;;;;;;;18.35;5.20;;;;;;;12.20;83.09;101445.50;4975076;28;20050;-74
2023/05/29 03:09:16;;;;;;;14.70;4.50;;;;;;;12.27;83.60;101446.59;4975020;28;20051;-75
2023/05/29 03:11:44;;;;;;;12.18;4.30;;;;;;;12.27;83.88;101445.75;4975148;28;20074;-74
2023/05/29 03:14:10;;;;;;;15.65;4.68;;;;;;;12.24;84.94;101446.03;4975041;28;20043;-75
2023/05/29 03:16:38;;;;;;;15.57;5.07;;;;;;;12.26;85.27;101450.28;4974507;28;20097;-75
2023/05/29 03:19:04;;;;;;;11.10;4.38;;;;;;;12.16;86.07;101455.72;4975257;28;20072;-75
2023/05/29 03:21:32;;;;;;;14.15;4.63;;;;;;;12.24;86.57;101456.81;4974964;28;20058;-75
2023/05/29 03:23:59;;;;;;;12.95;5.20;;;;;;;12.28;86.75;101459.06;4974940;28;20050;-74
2023/05/29 03:26:25;;;;;;;14.23;5.05;;;;;;;12.28;87.00;101455.50;4975288;28;20051;-74
2023/05/29 03:28:52;;;;;;;13.23;4.68;;;;;;;12.23;87.90;101455.97;4974902;28;20077;-74
2023/05/29 03:31:18;;;;;;;14.25;4.32;;;;;;;12.25;88.27;101459.34;4989921;28;20066;-74
2023/05/29 03:33:45;;;;;;;12.70;4.20;;;;;;;12.11;89.38;101459.91;4993704;28;20050;-74
2023/05/29 03:36:12;;;;;;;15.45;4.88;;;;;;;12.03;90.69;101466.00;4993963;28;20057;-74
2023/05/29 03:38:38;;;;;;;14.20;4.75;;;;;;;12.08;90.51;101460.19;4993937;28;20108;-75
2023/05/29 03:41:05;;;;;;;18.27;4.78;;;;;;;11.92;92.60;101459.00;4994160;28;20073;-75
2023/05/29 03:43:31;;;;;;;12.70;5.03;;;;;;;12.00;91.74;101455.53;4992778;28;20050;-74
2023/05/29 03:45:58;;;;;;;15.38;4.72;;;;;;;12.01;91.61;101461.81;4993529;28;20049;-74
2023/05/29 03:48:25;;;;;;;13.50;5.30;;;;;;;11.80;93.41;101464.75;4994399;28;20410;-74
2023/05/29 03:50:51;;;;;;;19.65;5.05;;;;;;;11.96;92.77;101464.06;4993856;28;20046;-74
2023/05/29 03:53:18;;;;;;;16.27;4.80;;;;;;;11.93;93.24;101460.72;4993608;28;20069;-75
2023/05/29 03:55:45;;;;;;;14.77;5.38;;;;;;;11.96;92.72;101467.59;4992319;28;20108;-75
2023/05/29 03:58:12;;;;;;;14.95;4.68;;;;;;;12.00;92.62;101462.78;4993034;28;20046;-74
2023/05/29 04:00:39;;;;;;;11.88;4.38;;;;;;;12.10;92.18;101468.94;4993717;28;20050;-74
2023/05/29 04:03:06;;;;;;;17.15;4.85;;;;;;;12.13;91.69;101468.63;4993200;28;20110;-74
2023/05/29 04:05:33;;;;;;;16.42;4.68;;;;;;;12.12;91.43;101466.94;4993605;28;20473;-74
2023/05/29 04:08:00;;;;;;;8.50;3.92;;;;;;;12.22;91.59;101462.34;4993733;28;20047;-74
2023/05/29 04:10:41;;;;;;;10.48;4.55;;;;;;;12.27;89.72;101468.09;4993565;28;20487;-74
2023/05/29 04:13:08;;;;;;;11.07;4.30;;;;;;;12.19;89.78;101470.72;4993686;28;20046;-73
2023/05/29 04:15:34;;;;;;;15.00;4.85;;;;;;;12.31;89.63;101474.88;4993417;28;20112;-75
2023/05/29 04:18:01;;;;;;;15.15;5.28;;;;;;;12.20;89.25;101476.94;4993298;28;20050;-76
2023/05/29 04:20:27;;;;;;;14.80;4.75;;;;;;;12.15;88.81;101480.09;4993136;28;20057;-73
2023/05/29 04:22:54;;;;;;;10.25;4.15;;;;;;;12.27;87.32;101481.56;4993342;28;20084;-74
2023/05/29 04:25:21;;;;;;;8.10;4.00;;;;;;;12.33;86.58;101474.72;4993254;28;20054;-74
2023/05/29 04:27:48;;;;;;;9.93;3.85;;;;;;;12.37;85.74;101474.25;4992814;28;20105;-74
2023/05/29 04:30:16;;;;;;;10.00;3.85;;;;;;;12.41;85.59;101485.56;4986194;28;20468;-74
2023/05/29 04:32:42;;;;;;;10.88;4.25;;;;;;;12.45;85.24;101483.41;4973363;28;20055;-74
2023/05/29 04:35:10;;;;;;;13.73;3.95;;;;;;;12.47;84.80;101484.94;4973414;28;20081;-75
2023/05/29 04:37:40;;;;;;;9.73;4.13;;;;;;;12.47;84.97;101481.41;4973389;28;20074;-75
2023/05/29 04:40:09;;;;;;;11.38;4.57;;;;;;;12.56;83.97;101483.19;4973619;28;20039;-74
2023/05/29 04:42:36;;;;;;;17.23;4.60;;;;;;;12.56;83.71;101478.66;4973414;28;20109;-70
2023/05/29 04:45:06;;;;;;;9.43;4.25;;;;;;;12.68;83.13;101475.72;4973778;28;20054;-69
2023/05/29 04:47:32;;;;;;;6.63;3.53;;;;;;;12.73;81.86;101478.78;4973945;28;20055;-69
2023/05/29 04:50:00;;;;;;;9.23;4.22;;;;;;;12.79;81.47;101481.72;4974024;28;20129;-71
2023/05/29 04:52:26;;;;;;;15.82;4.28;;;;;;;12.93;81.36;101483.00;4974066;28;20050;-73
2023/05/29 04:54:56;;;;;;;12.45;4.07;;;;;;;13.02;80.76;101486.63;4974236;28;20086;-69
2023/05/29 04:57:23;;;;;;;15.57;3.92;;;;;;;13.11;79.68;101485.66;4972256;28;20050;-70
2023/05/29 04:59:50;;;;;;;10.45;4.15;;;;;;;13.07;79.41;101495.06;4973078;28;20066;-69
2023/05/29 05:02:17;;;;;;;8.60;3.80;;;;;;;13.14;77.34;101488.03;4972572;28;20050;-70
2023/05/29 05:04:45;;;;;;;11.05;3.80;;;;;;;13.20;76.46;101489.25;4973441;28;20054;-69
2023/05/29 05:07:12;;;;;;;11.60;4.55;;;;;;;13.09;75.73;101483.13;4973603;28;20042;-70
2023/05/29 05:09:39;;;;;;;12.07;4.28;;;;;;;13.26;75.08;101488.63;4963458;28;20051;-71
2023/05/29 05:12:06;;;;;;;7.45;3.28;;;;;;;13.19;74.55;101488.41;4981311;28;20046;-71
2023/05/29 05:14:33;;;;;;;10.05;4.00;;;;;;;13.24;74.49;101491.47;4978561;28;20046;-71
2023/05/29 05:17:00;;;;;;;13.07;4.15;;;;;;;13.03;74.24;101491.00;4972786;28;20399;-74
2023/05/29 05:19:26;;;;;;;9.60;3.35;;;;;;;13.12;73.52;101487.34;4972827;28;20097;-74
2023/05/29 05:21:53;;;;;;;11.48;3.28;;;;;;;13.16;73.67;101490.59;4972362;28;20077;-74
2023/05/29 05:24:19;;;;;;;10.80;3.67;;;;;;;13.24;73.88;101488.75;4972191;28;20407;-75
2023/05/29 05:26:46;;;;;;;10.25;3.65;;;;;;;13.33;73.26;101487.81;4971084;28;20050;-75
2023/05/29 05:29:13;;;;;;;8.85;3.47;;;;;;;13.11;73.54;101494.59;4971784;28;20131;-75
2023/05/29 05:31:39;;;;;;;7.90;3.60;;;;;;;13.12;73.25;101500.81;4988687;28;20097;-75
2023/05/29 05:34:06;;;;;;;7.85;3.97;;;;;;;13.32;72.77;101504.16;4991767;28;20077;-76
2023/05/29 05:36:33;;;;;;;8.20;3.28;;;;;;;13.14;72.43;101501.50;4990981;28;20408;-76
2023/05/29 05:38:59;;;;;;;7.85;3.20;;;;;;;13.20;71.49;101495.47;4991243;28;20050;-75
2023/05/29 05:41:26;;;;;;;6.90;3.17;;;;;;;13.17;71.76;101487.72;4991210;28;20050;-76
2023/05/29 05:43:53;;;;;;;7.75;3.42;;;;;;;13.25;72.50;101495.88;4985842;28;20046;-75
2023/05/29 05:46:19;;;;;;;7.38;3.55;;;;;;;13.45;71.92;101501.00;4991344;28;20050;-74
2023/05/29 05:48:46;;;;;;;9.80;3.47;;;;;;;13.38;69.59;101506.19;4990643;28;20053;-75
2023/05/29 05:51:12;;;;;;;6.95;3.42;;;;;;;13.32;69.99;101501.47;4991410;28;20077;-75
2023/05/29 05:53:39;;;;;;;8.82;3.55;;;;;;;13.38;69.08;101508.88;4990231;28;20054;-76
2023/05/29 05:56:06;;;;;;;8.90;3.22;;;;;;;13.54;68.76;101505.47;4990902;28;20081;-76
2023/05/29 05:58:33;;;;;;;6.35;3.35;;;;;;;13.75;68.30;101508.59;4990869;28;20050;-76
2023/05/29 06:01:00;;;;;;;9.68;3.28;;;;;;;13.76;67.64;101515.69;4991491;28;20414;-75
2023/05/29 06:03:27;;;;;;;9.10;3.42;;;;;;;13.67;67.51;101521.19;4991010;28;20129;-75
2023/05/29 06:05:54;;;;;;;10.05;2.88;;;;;;;13.61;66.67;101513.75;4990979;28;20076;-75
2023/05/29 06:08:20;;;;;;;6.95;2.90;;;;;;;13.50;66.01;101514.88;4989808;28;20050;-74
2023/05/29 06:10:47;;;;;;;8.80;3.10;;;;;;;13.44;65.63;101523.59;4990147;28;20112;-76
2023/05/29 06:13:13;;;;;;;5.25;2.42;;;;;;;13.77;65.22;101519.25;4990262;28;20046;-75
2023/05/29 06:15:40;;;;;;;5.50;2.60;;;;;;;13.72;64.28;101530.47;4990712;28;20554;-80
2023/05/29 06:18:07;;;;;;;5.90;2.45;;;;;;;13.81;63.58;101521.47;4990663;28;20418;-72
2023/05/29 06:20:33;;;;;;;6.53;2.67;;;;;;;13.52;65.67;101519.06;4991153;28;20169;-73
2023/05/29 06:23:00;;;;;;;9.50;2.75;;;;;;;13.87;64.16;101527.19;4990815;28;20371;-75
2023/05/29 06:25:32;;;;;;;4.20;2.28;;;;;;;13.81;63.43;101529.56;4990670;28;20105;-75
2023/05/29 06:28:00;;;;;;;7.18;2.50;;;;;;;14.15;62.17;101530.50;4990385;28;20046;-75
2023/05/29 06:30:27;;;;;;;7.00;2.30;;;;;;;13.81;62.07;101534.94;4991247;28;20109;-75
2023/05/29 06:32:54;;;;;;;7.28;2.42;;;;;;;14.09;61.96;101523.94;5010205;28;20046;-74
2023/05/29 06:35:21;;;;;;;6.40;2.72;;;;;;;14.39;63.48;101537.81;5010160;28;20100;-75
2023/05/29 06:37:47;;;;;;;12.43;2.83;;;;;;;14.52;62.21;101530.94;5009968;28;20112;-74
2023/05/29 06:40:15;;;;;;;4.60;2.30;;;;;;;14.51;60.40;101536.50;5009819;28;20057;-73
2023/05/29 06:42:45;;;;;;;9.20;2.72;;;;;;;14.51;59.13;101528.41;5009595;28;20057;-74
2023/05/29 06:45:15;;;;;;;3.42;1.92;;;;;;;14.51;58.95;101531.94;5010101;28;20045;-74
2023/05/29 06:47:44;;;;;;;6.82;2.35;;;;;;;14.42;58.58;101529.38;5010477;28;20441;-75
2023/05/29 06:50:11;;;;;;;3.65;1.85;;;;;;;14.57;57.69;101527.75;5010674;28;20113;-75
2023/05/29 06:52:37;;;;;;;5.60;2.40;;;;;;;14.83;57.23;101529.47;5010571;28;20054;-74
2023/05/29 06:55:05;;;;;;;5.43;2.33;;;;;;;15.05;58.09;101536.91;5010179;28;20077;-74
2023/05/29 06:57:31;;;;;;;4.10;1.95;;;;;;;15.06;57.33;101540.47;5010189;28;20053;-73
2023/05/29 06:59:58;;;;;;;5.43;2.40;;;;;;;15.11;56.39;101533.50;4992766;28;20041;-73
2023/05/29 07:02:24;;;;;;;3.22;1.73;;;;;;;15.09;54.93;101540.97;5009889;28;20049;-74
2023/05/29 07:04:51;;;;;;;4.88;1.95;;;;;;;15.08;54.99;101539.25;4992650;28;20045;-74
2023/05/29 07:07:17;;;;;;;4.50;2.13;;;;;;;15.00;54.80;101544.66;5009689;28;20049;-74
2023/05/29 07:09:44;;;;;;;6.07;1.98;;;;;;;15.13;54.22;101545.00;5010049;28;20073;-74
2023/05/29 07:12:11;;;;;;;4.90;2.00;;;;;;;15.01;52.96;101549.06;5009214;28;20046;-73
2023/05/29 07:14:37;;;;;;;4.07;2.08;;;;;;;15.42;54.09;101547.16;5009384;28;20070;-74
2023/05/29 07:17:05;;;;;;;6.80;2.35;;;;;;;15.58;53.43;101548.97;5009543;28;20066;-74
2023/05/29 07:19:33;;;;;;;4.60;1.88;;;;;;;15.99;53.17;101554.28;5009820;28;20080;-75
2023/05/29 07:22:00;;;;;;;5.15;2.20;;;;;;;16.17;52.95;101552.16;5009834;28;20050;-72
2023/05/29 07:24:26;;;;;;;4.72;2.55;;;;;;;16.54;53.29;101550.63;5009702;28;20050;-73
2023/05/29 07:26:54;;;;;;;3.08;1.90;;;;;;;15.89;50.89;101550.94;5009747;28;20074;-74
2023/05/29 07:29:23;;;;;;;5.28;2.00;;;;;;;16.49;53.47;101549.44;4992129;28;20046;-74
2023/05/29 07:31:50;;;;;;;5.05;2.05;;;;;;;16.81;53.53;101549.22;4974285;28;20042;-74
2023/05/29 07:34:17;;;;;;;6.70;2.25;;;;;;;17.46;51.92;101557.84;4973902;28;20057;-75
2023/05/29 07:37:04;;;;;;;4.63;1.98;;;;;;;17.74;50.41;101549.91;4973066;28;20458;-75
2023/05/29 07:39:31;;;;;;;5.25;1.88;;;;;;;18.07;48.09;101550.34;4973967;28;20098;-74
2023/05/29 07:42:02;;;;;;;9.73;2.22;;;;;;;18.28;47.63;101549.59;4974121;28;20062;-73
2023/05/29 07:44:29;;;;;;;8.32;2.08;;;;;;;18.50;48.19;101550.44;4974013;28;20101;-73
2023/05/29 07:46:56;;;;;;;6.07;2.05;;;;;;;19.07;47.40;101551.44;4974855;28;20066;-75
2023/05/29 07:49:22;;;;;;;4.50;2.10;;;;;;;18.89;46.50;101555.44;4974250;28;20458;-76
2023/05/29 07:51:49;;;;;;;5.68;1.90;;;;;;;19.16;44.72;101552.97;4973579;28;20098;-75
2023/05/29 07:54:18;;;;;;;3.85;2.08;;;;;;;19.10;45.49;101556.47;4974038;28;20054;-73
2023/05/29 07:56:45;;;;;;;4.43;2.25;;;;;;;19.35;43.48;101570.50;4973858;28;20130;-74
2023/05/29 07:59:12;;;;;;;8.50;2.47;;;;;;;19.33;44.84;101557.09;4973148;28;20077;-74
2023/05/29 08:01:41;;;;;;;5.90;2.47;;;;;;;19.06;42.85;101566.06;4973827;28;20085;-75
2023/05/29 08:04:07;;;;;;;4.00;2.05;;;;;;;18.45;44.72;101561.91;4973777;28;20098;-73
2023/05/29 08:06:34;;;;;;;13.23;2.58;;;;;;;18.52;46.18;101565.53;4973778;28;20046;-75
2023/05/29 08:09:01;;;;;;;7.30;2.28;;;;;;;18.89;46.35;101568.19;4973480;28;20047;-74
2023/05/29 08:11:28;;;;;;;7.20;2.58;;;;;;;19.35;43.90;101565.91;4973166;28;20051;-73
2023/05/29 08:13:55;;;;;;;9.38;2.13;;;;;;;19.66;42.32;101568.22;4974186;28;20046;-74
2023/05/29 08:16:22;;;;;;;5.85;2.55;;;;;;;19.80;42.57;101566.44;4973172;28;20055;-75
2023/05/29 08:18:49;;;;;;;4.35;2.03;;;;;;;20.08;43.22;101568.25;4973190;28;20046;-75
2023/05/29 08:21:15;;;;;;;5.28;2.50;;;;;;;20.04;42.28;101558.78;4955780;28;20058;-74
2023/05/29 08:23:42;;;;;;;3.83;2.00;;;;;;;18.82;41.82;101567.28;4956154;28;20463;-74
2023/05/29 08:26:09;;;;;;;4.18;1.70;;;;;;;17.88;43.70;101573.47;4973485;28;20444;-74
2023/05/29 08:28:35;;;;;;;4.13;2.20;;;;;;;17.28;45.37;101575.28;4972956;28;20415;-74
2023/05/29 08:31:02;;;;;;;7.43;2.08;;;;;;;17.00;46.01;101569.59;4972976;28;20462;-73
2023/05/29 08:33:30;;;;;;;6.28;2.22;;;;;;;17.05;47.11;101566.31;4972994;28;20082;-74
2023/05/29 08:35:58;;;;;;;3.92;2.22;;;;;;;17.30;46.23;101566.94;4973578;28;20046;-74
2023/05/29 08:38:25;;;;;;;3.92;2.10;;;;;;;17.29;46.47;101563.41;4973414;28;20191;-74
2023/05/29 08:40:53;;;;;;;6.15;2.30;;;;;;;18.04;44.75;101557.00;4973262;28;20098;-74
2023/05/29 08:43:23;;;;;;;5.25;2.33;;;;;;;18.31;44.45;101557.38;4973422;28;20074;-74
2023/05/29 08:45:54;;;;;;;5.03;2.38;;;;;;;19.29;42.96;101560.41;4973197;28;20051;-74
2023/05/29 08:48:26;;;;;;;5.60;2.22;;;;;;;20.14;41.99;101549.22;4972928;28;20407;-74
2023/05/29 08:50:55;;;;;;;8.02;2.28;;;;;;;21.29;40.31;101557.41;4969781;28;20050;-75
2023/05/29 08:53:23;;;;;;;4.40;2.17;;;;;;;21.50;39.94;101559.91;4973329;28;20066;-75
2023/05/29 08:55:52;;;;;;;3.63;2.05;;;;;;;21.72;39.01;101552.28;4973248;28;20047;-75
2023/05/29 08:58:23;;;;;;;5.53;2.20;;;;;;;21.72;39.68;101560.47;4973301;28;20069;-75
2023/05/29 09:00:51;;;;;;;3.65;2.05;;;;;;;22.38;38.42;101564.03;4972921;28;20054;-76
2023/05/29 09:03:17;;;;;;;9.57;2.67;;;;;;;22.13;38.20;101569.41;4973123;28;20059;-76
2023/05/29 09:05:45;;;;;;;5.15;2.30;;;;;;;23.31;36.61;101560.69;4972656;28;20562;-74
2023/05/29 09:08:12;;;;;;;4.72;2.28;;;;;;;23.25;36.49;101559.69;4971698;28;20055;-75
2023/05/29 09:10:43;;;;;;;5.05;2.03;;;;;;;23.31;36.47;101550.56;4972821;28;20108;-75
2023/05/29 09:13:11;;;;;;;;;;;;;;;24.02;35.16;101548.34;4973511;28;20426;-75
2023/05/29 09:15:40;;;;;;;3.38;2.00;;;;;;;24.20;35.31;101546.44;4972448;28;19921;-75
2023/05/29 09:18:08;;;;;;;9.10;2.15;;;;;;;24.57;34.47;101543.59;4972455;28;20043;-75
2023/05/29 09:20:35;;;;;;;5.72;2.53;;;;;;;24.77;34.25;101537.81;4972340;28;20105;-75
2023/05/29 09:23:05;;;;;;;8.63;2.85;;;;;;;24.27;34.56;101542.75;4972230;28;20101;-75
2023/05/29 09:25:34;;;;;;;7.93;2.70;;;;;;;24.21;34.88;101542.59;4972555;28;20799;-73
2023/05/29 09:28:05;;;;;;;4.85;2.50;;;;;;;24.41;34.71;101547.84;4972035;28;20474;-75
2023/05/29 09:30:38;;;;;;;4.78;2.50;;;;;;;24.32;33.90;101554.69;4972262;28;20080;-73
2023/05/29 09:33:10;;;;;;;4.28;2.42;;;;;;;24.18;34.15;101551.28;4971673;28;20047;-74
2023/05/29 09:35:41;;;;;;;6.15;2.53;;;;;;;25.08;33.09;101566.06;4971804;28;20051;-73
2023/05/29 09:38:09;;;;;;;8.23;2.90;;;;;;;23.69;33.96;101569.56;4972313;28;20050;-74
2023/05/29 09:40:40;;;;;;;6.88;2.63;;;;;;;22.71;35.15;101578.41;4972259;28;20101;-75
2023/05/29 09:43:17;;;;;;;5.97;2.72;;;;;;;24.21;33.82;101572.75;4972429;28;20050;-73
2023/05/29 09:45:45;;;;;;;7.18;2.95;;;;;;;22.53;35.09;101564.59;4972038;28;20050;-74
2023/05/29 09:48:14;;;;;;;6.72;2.97;;;;;;;22.12;36.95;101568.59;4972222;28;20051;-74
2023/05/29 09:50:50;;;;;;;4.55;2.35;;;;;;;22.24;36.76;101568.72;4972289;28;20055;-74
2023/05/29 09:53:24;;;;;;;6.10;2.50;;;;;;;20.97;38.81;101562.63;4971521;28;20047;-75
2023/05/29 09:55:52;;;;;;;5.97;3.10;;;;;;;20.24;39.79;101565.16;4970780;28;20070;-74
2023/05/29 09:58:19;;;;;;;8.98;2.70;;;;;;;20.89;39.17;101560.09;4954658;28;20042;-73
2023/05/29 10:00:48;;;;;;;5.40;2.60;;;;;;;21.73;37.93;101547.66;4972070;28;20179;-74
2023/05/29 10:03:16;;;;;;;5.90;2.70;;;;;;;21.10;38.62;101548.16;4971989;28;20047;-73
2023/05/29 10:05:47;;;;;;;11.93;2.95;;;;;;;20.57;39.23;101550.84;4971862;28;20057;-74
2023/05/29 10:08:17;;;;;;;5.75;2.85;;;;;;;21.35;38.81;101542.91;4971817;28;20055;-76
2023/05/29 10:10:47;;;;;;;5.57;2.60;;;;;;;22.07;37.83;101538.31;4971954;28;20097;-75
2023/05/29 10:13:15;;;;;;;6.57;2.60;;;;;;;22.82;36.74;101543.19;4972099;28;20053;-74
2023/05/29 10:15:44;;;;;;;6.80;2.97;;;;;;;22.63;36.12;101542.25;4971802;28;20077;-74
2023/05/29 10:18:35;;;;;;;6.28;2.80;;;;;;;21.32;38.48;101552.38;4971785;28;20494;-74
2023/05/29 10:21:02;;;;;;;9.80;3.25;;;;;;;20.42;39.64;101548.28;4952699;28;20073;-73
2023/05/29 10:23:30;;;;;;;6.82;2.55;;;;;;;21.27;38.53;101549.44;4952603;28;20514;-75
2023/05/29 10:26:04;;;;;;;7.10;2.60;;;;;;;22.36;37.12;101544.28;4952895;28;20101;-75
2023/05/29 10:28:31;;;;;;;4.85;2.45;;;;;;;22.61;36.91;101556.16;4952473;28;20057;-75
2023/05/29 10:31:08;;;;;;;7.40;2.53;;;;;;;23.13;35.50;101547.81;4965376;28;20053;-74
2023/05/29 10:33:51;;;;;;;6.88;2.60;;;;;;;22.49;36.71;101547.78;4971637;28;20502;-74
2023/05/29 10:36:24;;;;;;;9.38;2.85;;;;;;;22.14;36.75;101547.31;4972104;28;20066;-75
2023/05/29 10:38:51;;;;;;;4.40;2.58;;;;;;;21.85;36.84;101548.72;4972136;28;20043;-76
2023/05/29 10:41:27;;;;;;;7.22;2.92;;;;;;;21.77;37.30;101541.56;4972001;28;20109;-74
2023/05/29 10:43:55;;;;;;;5.97;2.75;;;;;;;21.72;37.45;101543.25;4971743;28;20057;-75
2023/05/29 10:46:50;;;;;;;4.30;2.70;;;;;;;22.89;35.25;101539.31;4972253;28;20058;-74
2023/05/29 10:49:17;;;;;;;7.05;2.70;;;;;;;23.16;34.60;101531.75;4961773;28;20050;-75
2023/05/29 10:51:44;;;;;;;5.97;2.92;;;;;;;21.67;36.34;101535.72;4972029;28;20098;-73
2023/05/29 10:54:11;;;;;;;6.28;2.72;;;;;;;21.02;36.67;101535.56;4972082;28;20043;-73
2023/05/29 10:56:38;;;;;;;5.22;2.58;;;;;;;20.51;37.91;101535.31;4971340;28;20055;-73
2023/05/29 10:59:05;;;;;;;6.72;2.83;;;;;;;20.33;38.48;101531.25;4971699;28;20042;-74
2023/05/29 11:01:32;;;;;;;8.43;2.85;;;;;;;20.96;37.08;101527.38;4970970;28;20113;-74
2023/05/29 11:04:15;;;;;;;8.80;2.67;;;;;;;20.94;35.85;101535.78;4973312;28;20047;-73
2023/05/29 11:06:42;;;;;;;5.15;2.65;;;;;;;21.21;37.07;101533.91;4975443;28;20422;-75
2023/05/29 11:09:34;;;;;;;5.50;2.70;;;;;;;21.16;36.58;101527.41;4975367;28;20121;-75
2023/05/29 11:12:35;;;;;;;5.00;2.72;;;;;;;21.04;37.05;101521.69;4974974;28;20047;-73
2023/05/29 11:15:08;;;;;;;3.60;2.40;;;;;;;20.86;37.28;101527.78;4987330;28;20046;-74
2023/05/29 11:17:37;;;;;;;6.70;2.35;;;;;;;21.52;36.04;101530.47;4994167;28;20054;-75
2023/05/29 11:20:06;;;;;;;3.72;2.38;;;;;;;21.29;36.34;101528.25;4994250;28;20053;-75
2023/05/29 11:22:52;;;;;;;8.98;2.75;;;;;;;21.44;36.26;101516.25;4993876;28;20054;-74
2023/05/29 11:25:20;;;;;;;4.75;2.40;;;;;;;20.79;36.81;101521.50;4967222;28;20042;-76
2023/05/29 11:27:47;;;;;;;8.93;3.10;;;;;;;20.73;37.41;101512.28;4994326;28;20120;-76
2023/05/29 11:30:14;;;;;;;6.03;2.53;;;;;;;20.78;37.60;101517.09;5000577;28;20053;-75
2023/05/29 11:32:44;;;;;;;6.50;2.63;;;;;;;21.04;37.17;101517.13;5013735;28;20177;-75